sensor_id;sensor_type;location;lat;lon;timestamp;P1;durP1;ratioP1;P2;durP2;ratioP2
72127;SDS011;60000;51.030;7.024;2022-08-19T00:00:48;12.27;;;7.40;;
72127;SDS011;60000;51.030;7.024;2022-08-19T00:03:15;10.75;;;6.53;;
72127;SDS011;60000;51.030;7.024;2022-08-19T00:05:40;12.33;;;7.40;;
72127;SDS011;60000;51.030;7.024;2022-08-19T00:08:06;13.10;;;7.20;;
72127;SDS011;60000;51.030;7.024;2022-08-19T00:10:32;12.23;;;7.67;;
72127;SDS011;60000;51.030;7.024;2022-08-19T00:12:58;13.55;;;7.30;;
72127;SDS011;60000;51.030;7.024;2022-08-19T00:15:24;11.27;;;6.83;;
72127;SDS011;60000;51.030;7.024;2022-08-19T00:17:49;12.20;;;6.40;;
72127;SDS011;60000;51.030;7.024;2022-08-19T00:20:16;10.03;;;6.43;;
72127;SDS011;60000;51.030;7.024;2022-08-19T00:22:46;13.60;;;7.10;;
72127;SDS011;60000;51.030;7.024;2022-08-19T00:25:12;11.63;;;7.03;;
72127;SDS011;60000;51.030;7.024;2022-08-19T00:27:39;12.10;;;7.40;;
72127;SDS011;60000;51.030;7.024;2022-08-19T00:30:05;11.70;;;7.45;;
72127;SDS011;60000;51.030;7.024;2022-08-19T00:32:32;12.10;;;7.43;;
72127;SDS011;60000;51.030;7.024;2022-08-19T00:34:59;11.88;;;7.00;;
72127;SDS011;60000;51.030;7.024;2022-08-19T00:37:25;12.18;;;7.45;;
72127;SDS011;60000;51.030;7.024;2022-08-19T00:39:52;13.10;;;6.88;;
72127;SDS011;60000;51.030;7.024;2022-08-19T00:42:18;10.97;;;6.33;;
72127;SDS011;60000;51.030;7.024;2022-08-19T00:44:45;15.20;;;6.78;;
72127;SDS011;60000;51.030;7.024;2022-08-19T00:47:11;10.63;;;6.90;;
72127;SDS011;60000;51.030;7.024;2022-08-19T00:49:37;11.73;;;7.00;;
72127;SDS011;60000;51.030;7.024;2022-08-19T00:52:20;11.32;;;6.60;;
72127;SDS011;60000;51.030;7.024;2022-08-19T00:54:48;10.98;;;6.65;;
72127;SDS011;60000;51.030;7.024;2022-08-19T00:57:15;10.70;;;6.03;;
72127;SDS011;60000;51.030;7.024;2022-08-19T00:59:44;11.65;;;7.03;;
72127;SDS011;60000;51.030;7.024;2022-08-19T01:02:12;12.10;;;7.32;;
72127;SDS011;60000;51.030;7.024;2022-08-19T01:04:38;12.37;;;7.27;;
72127;SDS011;60000;51.030;7.024;2022-08-19T01:07:03;11.20;;;6.93;;
72127;SDS011;60000;51.030;7.024;2022-08-19T01:09:29;11.50;;;6.82;;
72127;SDS011;60000;51.030;7.024;2022-08-19T01:11:55;12.90;;;7.00;;
72127;SDS011;60000;51.030;7.024;2022-08-19T01:14:21;11.85;;;7.10;;
72127;SDS011;60000;51.030;7.024;2022-08-19T01:16:48;11.77;;;7.40;;
72127;SDS011;60000;51.030;7.024;2022-08-19T01:19:18;11.60;;;7.30;;
72127;SDS011;60000;51.030;7.024;2022-08-19T01:22:18;12.32;;;6.78;;
72127;SDS011;60000;51.030;7.024;2022-08-19T01:24:39;17.52;;;7.32;;
72127;SDS011;60000;51.030;7.024;2022-08-19T01:27:05;10.73;;;6.70;;
72127;SDS011;60000;51.030;7.024;2022-08-19T01:29:32;11.48;;;7.05;;
72127;SDS011;60000;51.030;7.024;2022-08-19T01:31:58;11.77;;;6.90;;
72127;SDS011;60000;51.030;7.024;2022-08-19T01:34:24;13.68;;;7.22;;
72127;SDS011;60000;51.030;7.024;2022-08-19T01:36:50;11.27;;;7.00;;
72127;SDS011;60000;51.030;7.024;2022-08-19T01:39:17;10.13;;;6.33;;
72127;SDS011;60000;51.030;7.024;2022-08-19T01:41:45;13.20;;;7.18;;
72127;SDS011;60000;51.030;7.024;2022-08-19T01:44:11;10.60;;;6.43;;
72127;SDS011;60000;51.030;7.024;2022-08-19T01:46:37;10.37;;;6.83;;
72127;SDS011;60000;51.030;7.024;2022-08-19T01:49:04;12.55;;;7.32;;
72127;SDS011;60000;51.030;7.024;2022-08-19T01:51:30;11.15;;;6.68;;
72127;SDS011;60000;51.030;7.024;2022-08-19T01:53:55;13.40;;;7.00;;
72127;SDS011;60000;51.030;7.024;2022-08-19T01:56:22;10.80;;;7.10;;
72127;SDS011;60000;51.030;7.024;2022-08-19T01:58:49;11.67;;;7.13;;
72127;SDS011;60000;51.030;7.024;2022-08-19T02:01:18;13.90;;;6.95;;
72127;SDS011;60000;51.030;7.024;2022-08-19T02:03:43;10.77;;;6.50;;
72127;SDS011;60000;51.030;7.024;2022-08-19T02:06:09;10.53;;;6.40;;
72127;SDS011;60000;51.030;7.024;2022-08-19T02:08:35;10.00;;;6.37;;
72127;SDS011;60000;51.030;7.024;2022-08-19T02:11:02;15.30;;;6.50;;
72127;SDS011;60000;51.030;7.024;2022-08-19T02:13:28;12.48;;;7.32;;
72127;SDS011;60000;51.030;7.024;2022-08-19T02:15:54;12.43;;;6.80;;
72127;SDS011;60000;51.030;7.024;2022-08-19T02:18:19;12.37;;;7.10;;
72127;SDS011;60000;51.030;7.024;2022-08-19T02:20:45;13.07;;;7.40;;
72127;SDS011;60000;51.030;7.024;2022-08-19T02:23:12;11.68;;;6.75;;
72127;SDS011;60000;51.030;7.024;2022-08-19T02:25:39;10.85;;;7.05;;
72127;SDS011;60000;51.030;7.024;2022-08-19T02:28:05;11.13;;;6.85;;
72127;SDS011;60000;51.030;7.024;2022-08-19T02:30:31;13.27;;;6.47;;
72127;SDS011;60000;51.030;7.024;2022-08-19T02:32:56;10.93;;;6.45;;
72127;SDS011;60000;51.030;7.024;2022-08-19T02:35:22;12.27;;;6.88;;
72127;SDS011;60000;51.030;7.024;2022-08-19T02:37:48;10.47;;;6.57;;
72127;SDS011;60000;51.030;7.024;2022-08-19T02:40:32;12.80;;;7.15;;
72127;SDS011;60000;51.030;7.024;2022-08-19T02:43:02;16.38;;;7.32;;
72127;SDS011;60000;51.030;7.024;2022-08-19T02:45:31;11.03;;;6.50;;
72127;SDS011;60000;51.030;7.024;2022-08-19T02:47:58;11.15;;;6.55;;
72127;SDS011;60000;51.030;7.024;2022-08-19T02:50:24;13.40;;;6.57;;
72127;SDS011;60000;51.030;7.024;2022-08-19T02:52:49;11.65;;;6.53;;
72127;SDS011;60000;51.030;7.024;2022-08-19T02:55:14;12.50;;;6.60;;
72127;SDS011;60000;51.030;7.024;2022-08-19T02:57:40;16.03;;;7.03;;
72127;SDS011;60000;51.030;7.024;2022-08-19T03:00:06;12.93;;;7.03;;
72127;SDS011;60000;51.030;7.024;2022-08-19T03:02:34;11.00;;;6.30;;
72127;SDS011;60000;51.030;7.024;2022-08-19T03:04:59;11.80;;;6.70;;
72127;SDS011;60000;51.030;7.024;2022-08-19T03:07:24;13.30;;;7.23;;
72127;SDS011;60000;51.030;7.024;2022-08-19T03:09:50;10.93;;;6.18;;
72127;SDS011;60000;51.030;7.024;2022-08-19T03:12:15;12.07;;;7.33;;
72127;SDS011;60000;51.030;7.024;2022-08-19T03:14:40;10.70;;;6.10;;
72127;SDS011;60000;51.030;7.024;2022-08-19T03:17:06;11.23;;;6.83;;
72127;SDS011;60000;51.030;7.024;2022-08-19T03:19:32;11.80;;;6.63;;
72127;SDS011;60000;51.030;7.024;2022-08-19T03:21:58;11.23;;;6.53;;
72127;SDS011;60000;51.030;7.024;2022-08-19T03:24:24;11.10;;;6.93;;
72127;SDS011;60000;51.030;7.024;2022-08-19T03:26:51;11.95;;;7.20;;
72127;SDS011;60000;51.030;7.024;2022-08-19T03:29:22;11.18;;;7.00;;
72127;SDS011;60000;51.030;7.024;2022-08-19T03:31:48;10.63;;;6.57;;
72127;SDS011;60000;51.030;7.024;2022-08-19T03:34:23;11.63;;;7.03;;
72127;SDS011;60000;51.030;7.024;2022-08-19T03:36:53;10.73;;;6.97;;
72127;SDS011;60000;51.030;7.024;2022-08-19T03:39:20;11.85;;;7.20;;
72127;SDS011;60000;51.030;7.024;2022-08-19T03:41:46;11.35;;;6.72;;
72127;SDS011;60000;51.030;7.024;2022-08-19T03:44:14;11.05;;;6.63;;
72127;SDS011;60000;51.030;7.024;2022-08-19T03:46:40;12.60;;;6.40;;
72127;SDS011;60000;51.030;7.024;2022-08-19T03:49:06;11.25;;;6.15;;
72127;SDS011;60000;51.030;7.024;2022-08-19T03:51:34;11.27;;;6.57;;
72127;SDS011;60000;51.030;7.024;2022-08-19T03:54:01;11.73;;;6.93;;
72127;SDS011;60000;51.030;7.024;2022-08-19T03:56:29;13.02;;;7.30;;
72127;SDS011;60000;51.030;7.024;2022-08-19T03:58:55;14.98;;;7.20;;
72127;SDS011;60000;51.030;7.024;2022-08-19T04:01:23;11.32;;;6.38;;
72127;SDS011;60000;51.030;7.024;2022-08-19T04:03:49;11.43;;;6.93;;
72127;SDS011;60000;51.030;7.024;2022-08-19T04:06:24;11.63;;;7.57;;
72127;SDS011;60000;51.030;7.024;2022-08-19T04:08:52;11.07;;;6.90;;
72127;SDS011;60000;51.030;7.024;2022-08-19T04:11:20;10.88;;;6.50;;
72127;SDS011;60000;51.030;7.024;2022-08-19T04:13:50;13.23;;;6.50;;
72127;SDS011;60000;51.030;7.024;2022-08-19T04:16:21;12.75;;;7.20;;
72127;SDS011;60000;51.030;7.024;2022-08-19T04:18:48;11.57;;;7.15;;
72127;SDS011;60000;51.030;7.024;2022-08-19T04:21:18;11.80;;;6.93;;
72127;SDS011;60000;51.030;7.024;2022-08-19T04:23:46;11.52;;;6.80;;
72127;SDS011;60000;51.030;7.024;2022-08-19T04:26:13;12.00;;;7.00;;
72127;SDS011;60000;51.030;7.024;2022-08-19T04:28:40;12.48;;;6.97;;
72127;SDS011;60000;51.030;7.024;2022-08-19T04:31:11;14.52;;;6.65;;
72127;SDS011;60000;51.030;7.024;2022-08-19T04:33:39;10.73;;;6.50;;
72127;SDS011;60000;51.030;7.024;2022-08-19T04:36:04;11.93;;;6.50;;
72127;SDS011;60000;51.030;7.024;2022-08-19T04:38:30;12.43;;;6.80;;
72127;SDS011;60000;51.030;7.024;2022-08-19T04:40:55;11.80;;;6.90;;
72127;SDS011;60000;51.030;7.024;2022-08-19T04:43:39;10.90;;;6.43;;
72127;SDS011;60000;51.030;7.024;2022-08-19T04:46:06;12.70;;;6.88;;
72127;SDS011;60000;51.030;7.024;2022-08-19T04:48:37;10.93;;;6.68;;
72127;SDS011;60000;51.030;7.024;2022-08-19T04:51:05;12.57;;;7.60;;
72127;SDS011;60000;51.030;7.024;2022-08-19T04:53:33;16.48;;;7.90;;
72127;SDS011;60000;51.030;7.024;2022-08-19T04:55:59;11.18;;;7.00;;
72127;SDS011;60000;51.030;7.024;2022-08-19T04:58:51;13.23;;;7.22;;
72127;SDS011;60000;51.030;7.024;2022-08-19T05:01:18;12.10;;;6.90;;
72127;SDS011;60000;51.030;7.024;2022-08-19T05:03:46;12.10;;;6.80;;
72127;SDS011;60000;51.030;7.024;2022-08-19T05:06:13;10.75;;;6.72;;
72127;SDS011;60000;51.030;7.024;2022-08-19T05:08:40;12.40;;;6.88;;
72127;SDS011;60000;51.030;7.024;2022-08-19T05:11:15;13.50;;;7.30;;
72127;SDS011;60000;51.030;7.024;2022-08-19T05:13:46;14.03;;;7.33;;
72127;SDS011;60000;51.030;7.024;2022-08-19T05:16:13;12.43;;;7.00;;
72127;SDS011;60000;51.030;7.024;2022-08-19T05:18:42;14.10;;;8.10;;
72127;SDS011;60000;51.030;7.024;2022-08-19T05:21:27;13.52;;;7.78;;
72127;SDS011;60000;51.030;7.024;2022-08-19T05:24:12;16.83;;;8.32;;
72127;SDS011;60000;51.030;7.024;2022-08-19T05:26:40;13.50;;;8.33;;
72127;SDS011;60000;51.030;7.024;2022-08-19T05:29:13;15.07;;;7.78;;
72127;SDS011;60000;51.030;7.024;2022-08-19T05:31:43;15.93;;;8.77;;
72127;SDS011;60000;51.030;7.024;2022-08-19T05:34:08;16.13;;;9.00;;
72127;SDS011;60000;51.030;7.024;2022-08-19T05:36:36;15.00;;;8.40;;
72127;SDS011;60000;51.030;7.024;2022-08-19T05:39:12;14.35;;;8.95;;
72127;SDS011;60000;51.030;7.024;2022-08-19T05:41:47;16.88;;;9.70;;
72127;SDS011;60000;51.030;7.024;2022-08-19T05:44:14;16.45;;;9.60;;
72127;SDS011;60000;51.030;7.024;2022-08-19T05:46:42;15.43;;;8.57;;
72127;SDS011;60000;51.030;7.024;2022-08-19T05:49:08;19.27;;;9.60;;
72127;SDS011;60000;51.030;7.024;2022-08-19T05:51:34;15.33;;;9.23;;
72127;SDS011;60000;51.030;7.024;2022-08-19T05:54:02;19.25;;;10.13;;
72127;SDS011;60000;51.030;7.024;2022-08-19T05:56:29;17.10;;;9.57;;
72127;SDS011;60000;51.030;7.024;2022-08-19T05:58:58;18.85;;;11.30;;
72127;SDS011;60000;51.030;7.024;2022-08-19T06:01:24;19.17;;;10.83;;
72127;SDS011;60000;51.030;7.024;2022-08-19T06:03:50;29.05;;;13.45;;
72127;SDS011;60000;51.030;7.024;2022-08-19T06:06:16;27.15;;;14.60;;
72127;SDS011;60000;51.030;7.024;2022-08-19T06:08:42;34.80;;;18.73;;
72127;SDS011;60000;51.030;7.024;2022-08-19T06:11:14;30.60;;;16.60;;
72127;SDS011;60000;51.030;7.024;2022-08-19T06:13:41;38.72;;;18.75;;
72127;SDS011;60000;51.030;7.024;2022-08-19T06:16:07;35.90;;;18.27;;
72127;SDS011;60000;51.030;7.024;2022-08-19T06:18:33;37.60;;;18.50;;
72127;SDS011;60000;51.030;7.024;2022-08-19T06:20:58;31.70;;;17.83;;
72127;SDS011;60000;51.030;7.024;2022-08-19T06:23:24;31.77;;;17.30;;
72127;SDS011;60000;51.030;7.024;2022-08-19T06:25:50;31.40;;;17.33;;
72127;SDS011;60000;51.030;7.024;2022-08-19T06:28:15;29.87;;;15.63;;
72127;SDS011;60000;51.030;7.024;2022-08-19T06:30:41;32.20;;;16.83;;
72127;SDS011;60000;51.030;7.024;2022-08-19T06:33:06;35.33;;;17.73;;
72127;SDS011;60000;51.030;7.024;2022-08-19T06:35:32;34.40;;;18.07;;
72127;SDS011;60000;51.030;7.024;2022-08-19T06:37:57;33.93;;;17.23;;
72127;SDS011;60000;51.030;7.024;2022-08-19T06:40:22;31.63;;;18.17;;
72127;SDS011;60000;51.030;7.024;2022-08-19T06:42:48;31.80;;;18.07;;
72127;SDS011;60000;51.030;7.024;2022-08-19T06:45:13;35.75;;;18.90;;
72127;SDS011;60000;51.030;7.024;2022-08-19T06:47:39;31.23;;;16.43;;
72127;SDS011;60000;51.030;7.024;2022-08-19T06:50:05;32.47;;;17.50;;
72127;SDS011;60000;51.030;7.024;2022-08-19T06:52:32;33.58;;;18.42;;
72127;SDS011;60000;51.030;7.024;2022-08-19T06:54:59;29.60;;;16.10;;
72127;SDS011;60000;51.030;7.024;2022-08-19T06:57:26;29.75;;;16.65;;
72127;SDS011;60000;51.030;7.024;2022-08-19T06:59:52;30.00;;;16.15;;
72127;SDS011;60000;51.030;7.024;2022-08-19T07:02:18;31.57;;;17.33;;
72127;SDS011;60000;51.030;7.024;2022-08-19T07:04:45;28.10;;;15.33;;
72127;SDS011;60000;51.030;7.024;2022-08-19T07:07:12;31.70;;;15.52;;
72127;SDS011;60000;51.030;7.024;2022-08-19T07:09:40;30.08;;;15.95;;
72127;SDS011;60000;51.030;7.024;2022-08-19T07:12:09;29.98;;;15.98;;
72127;SDS011;60000;51.030;7.024;2022-08-19T07:14:37;30.60;;;15.90;;
72127;SDS011;60000;51.030;7.024;2022-08-19T07:17:07;25.07;;;14.77;;
72127;SDS011;60000;51.030;7.024;2022-08-19T07:19:34;26.80;;;14.68;;
72127;SDS011;60000;51.030;7.024;2022-08-19T07:22:01;30.33;;;16.08;;
72127;SDS011;60000;51.030;7.024;2022-08-19T07:24:28;26.98;;;14.35;;
72127;SDS011;60000;51.030;7.024;2022-08-19T07:26:56;26.52;;;14.30;;
72127;SDS011;60000;51.030;7.024;2022-08-19T07:29:25;24.93;;;13.87;;
72127;SDS011;60000;51.030;7.024;2022-08-19T07:31:51;25.40;;;14.05;;
72127;SDS011;60000;51.030;7.024;2022-08-19T07:34:17;25.17;;;12.80;;
72127;SDS011;60000;51.030;7.024;2022-08-19T07:36:43;25.48;;;12.95;;
72127;SDS011;60000;51.030;7.024;2022-08-19T07:39:11;21.73;;;12.53;;
72127;SDS011;60000;51.030;7.024;2022-08-19T07:41:39;23.45;;;12.65;;
72127;SDS011;60000;51.030;7.024;2022-08-19T07:44:05;20.90;;;12.10;;
72127;SDS011;60000;51.030;7.024;2022-08-19T07:46:33;21.98;;;12.88;;
72127;SDS011;60000;51.030;7.024;2022-08-19T07:49:00;24.13;;;12.93;;
72127;SDS011;60000;51.030;7.024;2022-08-19T07:51:27;21.58;;;12.77;;
72127;SDS011;60000;51.030;7.024;2022-08-19T07:53:53;20.90;;;11.95;;
72127;SDS011;60000;51.030;7.024;2022-08-19T07:56:19;19.37;;;12.20;;
72127;SDS011;60000;51.030;7.024;2022-08-19T07:58:47;21.73;;;12.48;;
72127;SDS011;60000;51.030;7.024;2022-08-19T08:01:15;21.38;;;12.60;;
72127;SDS011;60000;51.030;7.024;2022-08-19T08:03:46;25.98;;;13.02;;
72127;SDS011;60000;51.030;7.024;2022-08-19T08:06:31;22.63;;;13.30;;
72127;SDS011;60000;51.030;7.024;2022-08-19T08:09:17;25.47;;;13.40;;
72127;SDS011;60000;51.030;7.024;2022-08-19T08:11:49;23.63;;;12.80;;
72127;SDS011;60000;51.030;7.024;2022-08-19T08:14:18;22.00;;;13.00;;
72127;SDS011;60000;51.030;7.024;2022-08-19T08:16:55;29.13;;;13.73;;
72127;SDS011;60000;51.030;7.024;2022-08-19T08:19:22;27.38;;;13.70;;
72127;SDS011;60000;51.030;7.024;2022-08-19T08:21:50;25.93;;;13.67;;
72127;SDS011;60000;51.030;7.024;2022-08-19T08:24:19;21.77;;;12.18;;
72127;SDS011;60000;51.030;7.024;2022-08-19T08:26:45;22.13;;;12.70;;
72127;SDS011;60000;51.030;7.024;2022-08-19T08:29:11;26.70;;;13.40;;
72127;SDS011;60000;51.030;7.024;2022-08-19T08:31:37;24.85;;;12.90;;
72127;SDS011;60000;51.030;7.024;2022-08-19T08:34:04;22.80;;;12.63;;
72127;SDS011;60000;51.030;7.024;2022-08-19T08:36:29;24.77;;;13.70;;
72127;SDS011;60000;51.030;7.024;2022-08-19T08:38:58;25.83;;;13.87;;
72127;SDS011;60000;51.030;7.024;2022-08-19T08:41:28;24.35;;;14.02;;
72127;SDS011;60000;51.030;7.024;2022-08-19T08:44:02;27.55;;;14.30;;
72127;SDS011;60000;51.030;7.024;2022-08-19T08:46:31;29.40;;;14.80;;
72127;SDS011;60000;51.030;7.024;2022-08-19T08:51:54;25.67;;;14.20;;
72127;SDS011;60000;51.030;7.024;2022-08-19T08:54:28;23.65;;;13.77;;
72127;SDS011;60000;51.030;7.024;2022-08-19T08:56:58;26.83;;;13.43;;
72127;SDS011;60000;51.030;7.024;2022-08-19T08:59:26;28.23;;;14.40;;
72127;SDS011;60000;51.030;7.024;2022-08-19T09:01:59;29.33;;;14.57;;
72127;SDS011;60000;51.030;7.024;2022-08-19T09:04:25;30.17;;;13.90;;
72127;SDS011;60000;51.030;7.024;2022-08-19T09:09:36;24.85;;;13.15;;
72127;SDS011;60000;51.030;7.024;2022-08-19T09:12:15;28.38;;;14.80;;
72127;SDS011;60000;51.030;7.024;2022-08-19T09:14:50;30.97;;;14.57;;
72127;SDS011;60000;51.030;7.024;2022-08-19T09:17:24;27.02;;;14.77;;
72127;SDS011;60000;51.030;7.024;2022-08-19T09:22:47;23.98;;;14.63;;
72127;SDS011;60000;51.030;7.024;2022-08-19T09:25:15;28.70;;;14.93;;
72127;SDS011;60000;51.030;7.024;2022-08-19T09:27:42;25.60;;;14.03;;
72127;SDS011;60000;51.030;7.024;2022-08-19T09:30:31;27.92;;;14.80;;
72127;SDS011;60000;51.030;7.024;2022-08-19T09:32:59;26.65;;;14.07;;
72127;SDS011;60000;51.030;7.024;2022-08-19T09:35:26;28.92;;;14.77;;
72127;SDS011;60000;51.030;7.024;2022-08-19T09:37:53;30.90;;;15.13;;
72127;SDS011;60000;51.030;7.024;2022-08-19T09:40:19;27.70;;;14.63;;
72127;SDS011;60000;51.030;7.024;2022-08-19T09:42:45;30.58;;;15.88;;
72127;SDS011;60000;51.030;7.024;2022-08-19T09:45:14;28.10;;;14.70;;
72127;SDS011;60000;51.030;7.024;2022-08-19T09:47:40;26.17;;;14.32;;
72127;SDS011;60000;51.030;7.024;2022-08-19T09:50:06;24.30;;;12.87;;
72127;SDS011;60000;51.030;7.024;2022-08-19T09:52:32;26.42;;;13.15;;
72127;SDS011;60000;51.030;7.024;2022-08-19T09:55:01;25.15;;;14.23;;
72127;SDS011;60000;51.030;7.024;2022-08-19T09:57:34;24.25;;;13.30;;
72127;SDS011;60000;51.030;7.024;2022-08-19T10:00:00;28.65;;;15.00;;
72127;SDS011;60000;51.030;7.024;2022-08-19T10:02:25;23.40;;;13.13;;
72127;SDS011;60000;51.030;7.024;2022-08-19T10:04:51;20.63;;;11.60;;
72127;SDS011;60000;51.030;7.024;2022-08-19T10:07:36;23.30;;;11.63;;
72127;SDS011;60000;51.030;7.024;2022-08-19T10:10:03;23.52;;;11.90;;
72127;SDS011;60000;51.030;7.024;2022-08-19T10:12:31;21.15;;;10.15;;
72127;SDS011;60000;51.030;7.024;2022-08-19T10:14:57;22.77;;;11.05;;
72127;SDS011;60000;51.030;7.024;2022-08-19T10:17:23;22.10;;;11.73;;
72127;SDS011;60000;51.030;7.024;2022-08-19T10:19:50;17.70;;;9.95;;
72127;SDS011;60000;51.030;7.024;2022-08-19T10:22:15;17.50;;;8.97;;
72127;SDS011;60000;51.030;7.024;2022-08-19T10:24:42;19.77;;;8.55;;
72127;SDS011;60000;51.030;7.024;2022-08-19T10:27:07;16.03;;;8.50;;
72127;SDS011;60000;51.030;7.024;2022-08-19T10:29:34;19.23;;;8.75;;
72127;SDS011;60000;51.030;7.024;2022-08-19T10:32:00;12.43;;;6.87;;
72127;SDS011;60000;51.030;7.024;2022-08-19T10:34:28;12.38;;;6.78;;
72127;SDS011;60000;51.030;7.024;2022-08-19T10:36:54;12.13;;;6.55;;
72127;SDS011;60000;51.030;7.024;2022-08-19T10:39:20;14.02;;;7.65;;
72127;SDS011;60000;51.030;7.024;2022-08-19T10:41:46;17.97;;;8.90;;
72127;SDS011;60000;51.030;7.024;2022-08-19T10:44:12;19.57;;;10.43;;
72127;SDS011;60000;51.030;7.024;2022-08-19T10:46:39;16.83;;;8.82;;
72127;SDS011;60000;51.030;7.024;2022-08-19T10:49:07;18.65;;;9.68;;
72127;SDS011;60000;51.030;7.024;2022-08-19T10:51:33;16.67;;;10.02;;
72127;SDS011;60000;51.030;7.024;2022-08-19T10:54:17;15.13;;;8.13;;
72127;SDS011;60000;51.030;7.024;2022-08-19T10:56:43;17.42;;;8.57;;
72127;SDS011;60000;51.030;7.024;2022-08-19T10:59:24;15.23;;;8.40;;
72127;SDS011;60000;51.030;7.024;2022-08-19T11:01:52;14.73;;;8.95;;
72127;SDS011;60000;51.030;7.024;2022-08-19T11:04:19;14.50;;;7.68;;
72127;SDS011;60000;51.030;7.024;2022-08-19T11:06:46;11.00;;;6.30;;
72127;SDS011;60000;51.030;7.024;2022-08-19T11:09:14;15.68;;;6.97;;
72127;SDS011;60000;51.030;7.024;2022-08-19T11:11:41;14.60;;;7.20;;
72127;SDS011;60000;51.030;7.024;2022-08-19T11:14:08;15.68;;;7.63;;
72127;SDS011;60000;51.030;7.024;2022-08-19T11:16:39;13.60;;;6.60;;
72127;SDS011;60000;51.030;7.024;2022-08-19T11:19:06;15.63;;;7.80;;
72127;SDS011;60000;51.030;7.024;2022-08-19T11:21:35;12.95;;;8.00;;
72127;SDS011;60000;51.030;7.024;2022-08-19T11:24:03;15.18;;;7.80;;
72127;SDS011;60000;51.030;7.024;2022-08-19T11:26:31;15.27;;;7.60;;
72127;SDS011;60000;51.030;7.024;2022-08-19T11:28:58;12.57;;;7.73;;
72127;SDS011;60000;51.030;7.024;2022-08-19T11:31:25;12.93;;;7.07;;
72127;SDS011;60000;51.030;7.024;2022-08-19T11:33:55;17.58;;;6.82;;
72127;SDS011;60000;51.030;7.024;2022-08-19T11:36:21;14.55;;;6.85;;
72127;SDS011;60000;51.030;7.024;2022-08-19T11:38:47;16.70;;;6.90;;
72127;SDS011;60000;51.030;7.024;2022-08-19T11:41:14;12.95;;;6.72;;
72127;SDS011;60000;51.030;7.024;2022-08-19T11:43:41;13.48;;;6.95;;
72127;SDS011;60000;51.030;7.024;2022-08-19T11:46:07;11.13;;;6.23;;
72127;SDS011;60000;51.030;7.024;2022-08-19T11:48:35;11.85;;;7.22;;
72127;SDS011;60000;51.030;7.024;2022-08-19T11:51:03;9.98;;;5.45;;
72127;SDS011;60000;51.030;7.024;2022-08-19T11:53:31;11.82;;;6.00;;
72127;SDS011;60000;51.030;7.024;2022-08-19T11:55:57;10.40;;;5.97;;
72127;SDS011;60000;51.030;7.024;2022-08-19T11:58:22;12.73;;;6.47;;
72127;SDS011;60000;51.030;7.024;2022-08-19T12:00:49;9.30;;;5.33;;
72127;SDS011;60000;51.030;7.024;2022-08-19T12:03:15;10.68;;;6.22;;
72127;SDS011;60000;51.030;7.024;2022-08-19T12:05:41;10.07;;;6.07;;
72127;SDS011;60000;51.030;7.024;2022-08-19T12:08:07;9.57;;;5.53;;
72127;SDS011;60000;51.030;7.024;2022-08-19T12:10:33;11.65;;;6.63;;
72127;SDS011;60000;51.030;7.024;2022-08-19T12:12:59;9.77;;;5.47;;
72127;SDS011;60000;51.030;7.024;2022-08-19T12:15:26;13.25;;;5.88;;
72127;SDS011;60000;51.030;7.024;2022-08-19T12:17:54;11.10;;;5.70;;
72127;SDS011;60000;51.030;7.024;2022-08-19T12:20:21;11.73;;;5.50;;
72127;SDS011;60000;51.030;7.024;2022-08-19T12:22:48;10.25;;;5.63;;
72127;SDS011;60000;51.030;7.024;2022-08-19T12:25:13;9.30;;;5.07;;
72127;SDS011;60000;51.030;7.024;2022-08-19T12:27:39;9.87;;;5.83;;
72127;SDS011;60000;51.030;7.024;2022-08-19T12:30:05;10.77;;;6.10;;
72127;SDS011;60000;51.030;7.024;2022-08-19T12:32:32;9.57;;;5.90;;
72127;SDS011;60000;51.030;7.024;2022-08-19T12:34:58;8.50;;;5.07;;
72127;SDS011;60000;51.030;7.024;2022-08-19T12:37:23;8.67;;;4.70;;
72127;SDS011;60000;51.030;7.024;2022-08-19T12:39:49;10.10;;;5.28;;
72127;SDS011;60000;51.030;7.024;2022-08-19T12:42:14;8.30;;;4.47;;
72127;SDS011;60000;51.030;7.024;2022-08-19T12:44:40;7.80;;;4.40;;
72127;SDS011;60000;51.030;7.024;2022-08-19T12:47:11;8.25;;;4.80;;
72127;SDS011;60000;51.030;7.024;2022-08-19T12:49:39;7.68;;;4.50;;
72127;SDS011;60000;51.030;7.024;2022-08-19T12:52:05;8.75;;;4.72;;
72127;SDS011;60000;51.030;7.024;2022-08-19T12:54:33;8.68;;;4.90;;
72127;SDS011;60000;51.030;7.024;2022-08-19T12:56:58;9.60;;;4.60;;
72127;SDS011;60000;51.030;7.024;2022-08-19T12:59:24;9.18;;;5.03;;
72127;SDS011;60000;51.030;7.024;2022-08-19T13:01:50;7.50;;;4.32;;
72127;SDS011;60000;51.030;7.024;2022-08-19T13:04:16;8.50;;;4.27;;
72127;SDS011;60000;51.030;7.024;2022-08-19T13:06:41;8.33;;;4.40;;
72127;SDS011;60000;51.030;7.024;2022-08-19T13:09:09;9.73;;;5.57;;
72127;SDS011;60000;51.030;7.024;2022-08-19T13:11:35;10.40;;;5.30;;
72127;SDS011;60000;51.030;7.024;2022-08-19T13:14:02;11.18;;;4.80;;
72127;SDS011;60000;51.030;7.024;2022-08-19T13:16:28;11.05;;;4.72;;
72127;SDS011;60000;51.030;7.024;2022-08-19T13:18:55;9.88;;;4.22;;
72127;SDS011;60000;51.030;7.024;2022-08-19T13:21:24;8.43;;;4.00;;
72127;SDS011;60000;51.030;7.024;2022-08-19T13:23:51;7.60;;;3.80;;
72127;SDS011;60000;51.030;7.024;2022-08-19T13:26:17;9.73;;;5.05;;
72127;SDS011;60000;51.030;7.024;2022-08-19T13:28:43;9.43;;;4.22;;
72127;SDS011;60000;51.030;7.024;2022-08-19T13:31:29;8.77;;;4.60;;
72127;SDS011;60000;51.030;7.024;2022-08-19T13:34:15;10.00;;;4.77;;
72127;SDS011;60000;51.030;7.024;2022-08-19T13:36:41;8.57;;;5.05;;
72127;SDS011;60000;51.030;7.024;2022-08-19T13:39:07;9.27;;;4.63;;
72127;SDS011;60000;51.030;7.024;2022-08-19T13:41:33;11.38;;;4.53;;
72127;SDS011;60000;51.030;7.024;2022-08-19T13:44:00;8.52;;;4.28;;
72127;SDS011;60000;51.030;7.024;2022-08-19T13:46:26;12.35;;;4.90;;
72127;SDS011;60000;51.030;7.024;2022-08-19T13:48:53;9.30;;;4.87;;
72127;SDS011;60000;51.030;7.024;2022-08-19T13:51:19;7.10;;;3.70;;
72127;SDS011;60000;51.030;7.024;2022-08-19T13:53:45;9.37;;;4.43;;
72127;SDS011;60000;51.030;7.024;2022-08-19T13:56:11;9.43;;;4.27;;
72127;SDS011;60000;51.030;7.024;2022-08-19T13:58:38;8.10;;;3.85;;
72127;SDS011;60000;51.030;7.024;2022-08-19T14:01:04;9.93;;;4.35;;
72127;SDS011;60000;51.030;7.024;2022-08-19T14:03:30;8.93;;;3.70;;
72127;SDS011;60000;51.030;7.024;2022-08-19T14:05:56;6.68;;;3.60;;
72127;SDS011;60000;51.030;7.024;2022-08-19T14:08:22;8.23;;;3.50;;
72127;SDS011;60000;51.030;7.024;2022-08-19T14:10:48;15.73;;;4.87;;
72127;SDS011;60000;51.030;7.024;2022-08-19T14:13:17;10.18;;;3.90;;
72127;SDS011;60000;51.030;7.024;2022-08-19T14:15:45;6.13;;;3.20;;
72127;SDS011;60000;51.030;7.024;2022-08-19T14:18:20;7.60;;;3.10;;
72127;SDS011;60000;51.030;7.024;2022-08-19T14:20:45;6.10;;;2.88;;
72127;SDS011;60000;51.030;7.024;2022-08-19T14:23:11;7.37;;;3.17;;
72127;SDS011;60000;51.030;7.024;2022-08-19T14:25:37;7.32;;;3.35;;
72127;SDS011;60000;51.030;7.024;2022-08-19T14:28:03;6.97;;;3.50;;
72127;SDS011;60000;51.030;7.024;2022-08-19T14:30:29;10.17;;;3.90;;
72127;SDS011;60000;51.030;7.024;2022-08-19T14:32:58;8.82;;;3.42;;
72127;SDS011;60000;51.030;7.024;2022-08-19T14:35:28;7.35;;;3.58;;
72127;SDS011;60000;51.030;7.024;2022-08-19T14:37:54;10.27;;;3.45;;
72127;SDS011;60000;51.030;7.024;2022-08-19T14:40:23;6.03;;;2.88;;
72127;SDS011;60000;51.030;7.024;2022-08-19T14:42:55;6.40;;;2.90;;
72127;SDS011;60000;51.030;7.024;2022-08-19T14:45:25;5.15;;;2.42;;